Donie, Texas
Current Conditions -  °F | °C
As of 2:55 AM on Saturday 29 Nov 2014 (Local Time) from KLXY Reporting Station
Clear Clear  
Wind Chill: 56°   Ceiling: Unl
Heat Index: 56°   Visibility: 10mi
Dew Point: 53°   Wind: 13mph
Humidity: 87%   Direction: 190°S
Pressure: 30.03"   Gusts: 18mph
Location:  31.48°N, 96.22°W
Report Text: KLXY 290855Z AUTO 19011G16KT 10SM CLR 14/12 A3003 RMK AO2 T01360115
Loading
Personal Weather Stations






























Interactive Weather Map New forecast layout! Learn more

10-Day Weather Forecast

Advertisements
Track Severe Weather on mobile